Time;durP1;ratioP1;P1;durP2;ratioP2;P2;SDS_P1;SDS_P2;PMS_P1;PMS_P2;Temp;Humidity;BMP_temperature;BMP_pressure;BME280_temperature;BME280_humidity;BME280_pressure;Samples;Min_cycle;Max_cycle;Signal;HPM_P1;HPM_P2
2023/05/24 00:01:24;;;;;;;26.65;6.50;;;;;;;21.78;52.56;98684.50;5090635;28;20024;-45
2023/05/24 00:03:51;;;;;;;28.50;6.95;;;;;;;21.79;52.60;98691.44;5091890;28;20020;-44
2023/05/24 00:06:18;;;;;;;15.90;5.82;;;;;;;21.72;52.01;98683.72;5090598;28;20028;-44
2023/05/24 00:08:44;;;;;;;30.13;8.57;;;;;;;21.62;52.23;98677.63;5073784;28;20500;-44
2023/05/24 00:11:12;;;;;;;16.83;8.07;;;;;;;21.47;52.21;98675.78;5073668;28;20028;-44
2023/05/24 00:13:38;;;;;;;15.73;5.80;;;;;;;21.39;52.69;98671.81;5091800;28;20028;-44
2023/05/24 00:16:04;;;;;;;11.60;4.30;;;;;;;21.48;52.77;98672.88;5091777;28;20085;-44
2023/05/24 00:18:30;;;;;;;30.33;7.15;;;;;;;21.46;52.44;98674.22;5090490;28;20024;-44
2023/05/24 00:20:57;;;;;;;22.15;5.57;;;;;;;21.38;52.89;98677.41;5091719;28;20020;-44
2023/05/24 00:23:25;;;;;;;16.15;4.57;;;;;;;21.33;52.71;98686.25;5090423;28;20135;-44
2023/05/24 00:25:51;;;;;;;12.80;5.78;;;;;;;21.22;52.84;98680.09;5090350;28;20036;-44
2023/05/24 00:28:17;;;;;;;24.38;6.88;;;;;;;21.06;53.63;98682.00;5090366;28;20493;-44
2023/05/24 00:30:43;;;;;;;7.15;4.40;;;;;;;21.10;53.35;98679.59;5090199;28;20089;-44
2023/05/24 00:33:09;;;;;;;14.05;6.07;;;;;;;21.10;53.37;98675.06;5090369;28;20032;-44
2023/05/24 00:35:34;;;;;;;10.98;5.10;;;;;;;21.13;53.45;98671.84;5090253;28;20032;-44
2023/05/24 00:38:00;;;;;;;25.77;5.55;;;;;;;21.17;53.14;98668.63;5090330;28;20115;-44
2023/05/24 00:40:26;;;;;;;12.20;4.70;;;;;;;21.23;53.10;98665.72;5090290;28;20032;-44
2023/05/24 00:42:52;;;;;;;17.30;4.75;;;;;;;21.20;53.03;98660.88;5090229;28;20039;-44
2023/05/24 00:45:18;;;;;;;12.82;4.55;;;;;;;21.27;52.93;98661.44;5091333;28;20052;-44
2023/05/24 00:47:45;;;;;;;12.05;4.25;;;;;;;21.28;52.84;98662.22;5091505;28;20107;-44
2023/05/24 00:50:13;;;;;;;17.58;5.10;;;;;;;21.18;53.02;98665.69;5090421;28;20024;-44
2023/05/24 00:52:41;;;;;;;9.52;5.38;;;;;;;21.11;53.00;98666.00;5091252;28;20440;-44
2023/05/24 00:55:07;;;;;;;13.32;7.90;;;;;;;21.06;53.05;98667.88;5091462;28;20039;-44
2023/05/24 00:57:35;;;;;;;9.65;4.65;;;;;;;20.93;53.47;98658.56;5090038;28;20035;-44
2023/05/24 01:00:03;;;;;;;11.35;4.63;;;;;;;20.84;53.93;98658.28;5091375;28;20100;-44
2023/05/24 01:02:29;;;;;;;12.05;4.50;;;;;;;20.79;54.00;98652.97;5094781;28;20072;-44
2023/05/24 01:04:56;;;;;;;9.48;4.03;;;;;;;20.70;54.06;98650.00;5095044;28;20028;-44
2023/05/24 01:07:51;;;;;;;6.32;4.53;;;;;;;20.69;54.41;98656.44;5095050;28;20107;-44
2023/05/24 01:10:25;;;;;;;21.23;5.60;;;;;;;20.64;54.50;98647.63;5093787;28;20024;-44
2023/05/24 01:13:11;;;;;;;12.27;4.57;;;;;;;20.58;54.65;98643.31;5095003;28;20032;-44
2023/05/24 01:16:09;;;;;;;13.18;5.75;;;;;;;20.52;54.64;98645.19;5093622;28;20032;-44
2023/05/24 01:18:40;;;;;;;8.82;4.95;;;;;;;20.40;54.83;98637.44;5092933;28;20509;-44
2023/05/24 01:21:12;;;;;;;14.45;5.00;;;;;;;20.31;55.25;98633.72;5094841;28;20020;-44
2023/05/24 01:24:03;;;;;;;15.80;5.38;;;;;;;20.18;55.72;98642.22;5093426;28;20028;-44
2023/05/24 01:27:07;;;;;;;8.57;3.88;;;;;;;20.06;55.81;98637.97;5094723;28;20048;-44
2023/05/24 01:29:35;;;;;;;10.70;4.72;;;;;;;19.92;56.03;98635.00;5093607;28;20031;-44
2023/05/24 01:32:02;;;;;;;15.93;5.47;;;;;;;19.83;56.50;98625.91;5094535;28;20027;-44
2023/05/24 01:34:28;;;;;;;9.45;4.78;;;;;;;19.84;56.72;98616.88;5093205;28;20020;-44
2023/05/24 01:36:54;;;;;;;7.88;4.35;;;;;;;19.82;56.63;98618.16;5094762;28;20028;-44
2023/05/24 01:39:23;;;;;;;14.40;5.15;;;;;;;19.80;56.61;98620.28;5093205;28;20541;-44
2023/05/24 01:42:23;;;;;;;13.50;5.72;;;;;;;19.77;57.29;98623.50;5093099;28;20038;-44
2023/05/24 01:44:59;;;;;;;7.57;4.82;;;;;;;19.75;56.92;98619.22;5094110;28;20039;-44
2023/05/24 01:48:02;;;;;;;11.40;4.90;;;;;;;19.66;57.47;98615.44;5094974;28;20057;-44
2023/05/24 01:50:33;;;;;;;11.10;4.78;;;;;;;19.62;57.70;98616.22;5093184;28;20039;-44
2023/05/24 01:53:06;;;;;;;10.38;5.28;;;;;;;19.54;57.99;98610.34;5092937;28;20038;-44
2023/05/24 01:55:33;;;;;;;11.00;4.88;;;;;;;19.54;57.74;98620.19;5093118;28;20511;-44
2023/05/24 01:58:02;;;;;;;12.73;5.03;;;;;;;19.22;58.27;98625.63;5092831;28;20118;-44
2023/05/24 02:00:29;;;;;;;8.20;5.13;;;;;;;19.01;59.04;98622.84;5076074;28;20020;-44
2023/05/24 02:02:56;;;;;;;13.63;5.60;;;;;;;18.94;59.35;98628.41;5092675;28;20485;-44
2023/05/24 02:05:22;;;;;;;14.38;5.43;;;;;;;18.89;59.69;98632.88;5093922;28;20028;-44
2023/05/24 02:07:48;;;;;;;13.13;5.00;;;;;;;18.90;59.78;98637.94;5092582;28;20032;-44
2023/05/24 02:10:13;;;;;;;10.73;4.80;;;;;;;18.85;59.82;98634.44;5092583;28;20028;-44
2023/05/24 02:12:39;;;;;;;10.05;5.95;;;;;;;18.81;59.79;98639.47;5092811;28;20397;-44
2023/05/24 02:15:05;;;;;;;7.00;5.10;;;;;;;18.69;60.47;98638.81;5092461;28;20031;-44
2023/05/24 02:17:31;;;;;;;8.35;5.70;;;;;;;18.47;60.74;98634.41;5092420;28;20564;-44
2023/05/24 02:20:01;;;;;;;6.10;5.50;;;;;;;18.35;61.75;98639.06;5092427;28;20110;-44
2023/05/24 02:22:27;;;;;;;14.07;6.05;;;;;;;18.46;62.09;98637.31;5093740;28;20072;-44
2023/05/24 02:24:53;;;;;;;9.02;5.03;;;;;;;18.69;62.03;98623.69;5093875;28;20144;-44
2023/05/24 02:27:19;;;;;;;8.02;5.05;;;;;;;19.00;61.55;98634.56;5093538;28;20153;-44
2023/05/24 02:29:46;;;;;;;9.85;4.82;;;;;;;19.35;60.62;98630.47;5092217;28;20608;-44
2023/05/24 02:32:12;;;;;;;8.30;5.22;;;;;;;19.54;59.94;98639.63;5093381;28;20027;-44
2023/05/24 02:34:38;;;;;;;6.05;4.82;;;;;;;19.57;59.08;98640.97;5092352;28;20027;-44
2023/05/24 02:37:04;;;;;;;14.40;5.47;;;;;;;19.51;59.40;98637.47;5092055;28;20485;-44
2023/05/24 02:39:30;;;;;;;20.13;7.85;;;;;;;19.63;59.24;98631.94;5091988;28;20034;-44
2023/05/24 02:41:56;;;;;;;19.35;9.20;;;;;;;19.77;58.82;98624.28;5093276;28;20398;-44
2023/05/24 02:44:22;;;;;;;21.48;11.57;;;;;;;19.89;58.07;98629.38;5074972;28;20032;-44
2023/05/24 02:46:48;;;;;;;9.25;6.18;;;;;;;19.93;58.01;98625.13;5092947;28;20052;-44
2023/05/24 02:49:14;;;;;;;8.00;5.53;;;;;;;19.97;57.64;98628.06;5093062;28;20035;-44
2023/05/24 02:51:39;;;;;;;18.30;6.32;;;;;;;19.95;57.60;98625.66;5091763;28;20028;-44
2023/05/24 02:54:05;;;;;;;16.90;6.65;;;;;;;19.85;57.24;98622.97;5091744;28;20409;-44
2023/05/24 02:56:31;;;;;;;14.00;5.72;;;;;;;19.45;58.08;98622.53;5091641;28;20056;-44
2023/05/24 02:58:57;;;;;;;10.07;5.13;;;;;;;19.23;58.70;98624.56;5093056;28;20471;-44
2023/05/24 03:01:23;;;;;;;9.18;5.90;;;;;;;19.34;59.03;98629.69;5074720;28;20110;-44
2023/05/24 03:03:49;;;;;;;12.82;5.78;;;;;;;19.42;58.91;98632.88;5091534;28;20523;-44
2023/05/24 03:06:15;;;;;;;14.73;6.38;;;;;;;19.49;58.85;98636.13;5091602;28;20378;-44
2023/05/24 03:08:41;;;;;;;10.18;5.50;;;;;;;19.59;58.68;98625.53;5091726;28;20038;-44
2023/05/24 03:11:07;;;;;;;8.88;5.00;;;;;;;19.68;58.11;98634.63;5091381;28;20077;-44
2023/05/24 03:13:32;;;;;;;8.77;5.22;;;;;;;19.73;57.82;98628.53;5091367;28;20439;-44
2023/05/24 03:15:58;;;;;;;8.60;5.00;;;;;;;19.72;57.92;98622.41;5092599;28;20032;-44
2023/05/24 03:18:24;;;;;;;13.65;5.93;;;;;;;19.79;58.15;98629.34;5091274;28;20155;-44
2023/05/24 03:20:50;;;;;;;6.88;5.63;;;;;;;19.84;57.69;98629.34;5074359;28;20035;-44
2023/05/24 03:23:15;;;;;;;11.48;5.13;;;;;;;19.86;57.67;98628.06;5091187;28;20035;-44
2023/05/24 03:25:41;;;;;;;12.40;5.43;;;;;;;19.87;57.51;98626.97;5092378;28;20071;-44
2023/05/24 03:28:07;;;;;;;12.93;5.90;;;;;;;19.84;57.27;98640.00;5092788;28;20028;-44
2023/05/24 03:30:33;;;;;;;13.05;6.43;;;;;;;19.77;57.20;98636.81;5092258;28;20036;-44
2023/05/24 03:32:58;;;;;;;8.85;5.40;;;;;;;19.66;57.32;98635.91;5091042;28;20032;-44
2023/05/24 03:35:24;;;;;;;10.52;6.20;;;;;;;19.52;57.58;98640.94;5092330;28;20103;-44
2023/05/24 03:37:50;;;;;;;10.90;5.78;;;;;;;19.28;58.24;98635.25;5090940;28;20039;-44
2023/05/24 03:40:15;;;;;;;11.10;5.60;;;;;;;19.08;58.67;98641.25;5092257;28;20020;-44
2023/05/24 03:42:41;;;;;;;10.52;5.68;;;;;;;19.08;59.06;98638.59;5092131;28;20485;-44
2023/05/24 03:45:07;;;;;;;11.18;6.50;;;;;;;19.13;58.92;98642.06;5090850;28;20043;-44
2023/05/24 03:47:33;;;;;;;6.93;5.60;;;;;;;19.16;59.10;98644.22;5090807;28;20085;-44
2023/05/24 03:49:59;;;;;;;13.43;6.47;;;;;;;19.20;58.90;98644.50;5090780;28;20036;-44
2023/05/24 03:52:25;;;;;;;8.55;5.95;;;;;;;19.27;58.93;98647.72;5090664;28;20027;-44
2023/05/24 03:54:50;;;;;;;9.27;5.68;;;;;;;19.35;58.54;98655.22;5092072;28;20053;-44
2023/05/24 03:57:16;;;;;;;10.73;5.88;;;;;;;19.41;58.37;98649.94;5092003;28;20072;-44
2023/05/24 03:59:42;;;;;;;10.18;6.05;;;;;;;19.43;58.27;98650.47;5091984;28;20490;-44
2023/05/24 04:02:08;;;;;;;8.80;5.25;;;;;;;19.44;58.08;98652.09;5090680;28;20020;-44
2023/05/24 04:04:34;;;;;;;10.80;5.90;;;;;;;19.47;57.96;98654.22;5091908;28;20031;-44
2023/05/24 04:06:59;;;;;;;10.85;5.68;;;;;;;19.44;57.98;98658.22;5090542;28;20037;-44
2023/05/24 04:09:25;;;;;;;12.10;6.45;;;;;;;19.45;57.76;98651.03;5091894;28;20451;-44
2023/05/24 04:11:51;;;;;;;10.75;6.22;;;;;;;19.42;57.92;98651.53;5090479;28;20020;-44
2023/05/24 04:14:16;;;;;;;12.13;5.70;;;;;;;19.39;57.94;98660.84;5091780;28;20028;-44
2023/05/24 04:16:43;;;;;;;12.57;5.80;;;;;;;19.42;57.75;98664.84;5090793;28;20389;-44
2023/05/24 04:19:10;;;;;;;23.55;6.43;;;;;;;19.36;57.84;98664.81;5092045;28;20032;-44
2023/05/24 04:21:37;;;;;;;21.38;7.15;;;;;;;19.32;57.85;98663.75;5090361;28;20119;-44
2023/05/24 04:24:04;;;;;;;13.15;7.30;;;;;;;19.23;57.92;98665.28;5091775;28;20047;-44
2023/05/24 04:26:30;;;;;;;10.95;5.60;;;;;;;19.22;58.15;98658.34;5091644;28;20031;-44
2023/05/24 04:28:56;;;;;;;13.00;5.93;;;;;;;19.18;57.96;98656.47;5091688;28;20024;-44
2023/05/24 04:31:22;;;;;;;13.95;6.40;;;;;;;19.14;58.29;98662.31;5090251;28;20494;-44
2023/05/24 04:33:48;;;;;;;17.20;6.72;;;;;;;19.16;58.25;98667.38;5091727;28;20482;-44
2023/05/24 04:36:15;;;;;;;8.98;5.78;;;;;;;19.20;58.34;98659.69;5091891;28;20091;-44
2023/05/24 04:38:40;;;;;;;34.67;8.00;;;;;;;19.22;57.96;98662.88;5094255;28;20032;-44
2023/05/24 04:41:06;;;;;;;27.25;7.75;;;;;;;19.12;58.13;98675.06;5095659;28;20020;-44
2023/05/24 04:43:36;;;;;;;21.33;7.78;;;;;;;19.08;58.36;98678.50;5095583;28;20032;-44
2023/05/24 04:46:01;;;;;;;17.38;7.47;;;;;;;19.10;58.27;98676.38;5095330;28;20040;-44
2023/05/24 04:48:27;;;;;;;19.40;6.72;;;;;;;19.10;58.27;98674.50;5077231;28;20447;-44
2023/05/24 04:50:55;;;;;;;10.43;6.72;;;;;;;19.09;58.40;98685.41;5094019;28;20493;-44
2023/05/24 04:53:21;;;;;;;24.63;7.13;;;;;;;19.08;58.59;98678.50;5094161;28;20031;-44
2023/05/24 04:55:47;;;;;;;27.98;7.40;;;;;;;19.12;58.48;98682.25;5093977;28;20060;-44
2023/05/24 04:58:13;;;;;;;20.60;7.05;;;;;;;19.18;58.14;98672.44;5095294;28;20024;-44
2023/05/24 05:00:39;;;;;;;34.42;15.63;;;;;;;19.22;57.94;98676.97;5095165;28;20498;-44
2023/05/24 05:03:04;;;;;;;26.33;7.53;;;;;;;19.23;57.89;98675.91;5095155;28;20030;-44
2023/05/24 05:05:30;;;;;;;39.00;8.15;;;;;;;19.21;57.72;98670.03;5095062;28;20031;-44
2023/05/24 05:07:56;;;;;;;31.52;7.13;;;;;;;19.15;57.81;98684.38;5093807;28;20020;-44
2023/05/24 05:10:22;;;;;;;28.50;7.35;;;;;;;19.08;57.95;98671.31;5094971;28;20402;-44
2023/05/24 05:12:48;;;;;;;22.95;7.38;;;;;;;19.03;58.25;98683.75;5093637;28;20074;-44
2023/05/24 05:15:14;;;;;;;17.75;6.50;;;;;;;19.08;58.23;98673.97;5094980;28;20028;-44
2023/05/24 05:17:39;;;;;;;16.05;6.65;;;;;;;19.14;57.95;98672.16;5094869;28;20028;-44
2023/05/24 05:20:06;;;;;;;23.05;8.02;;;;;;;19.23;57.73;98669.78;5093841;28;20097;-44
2023/05/24 05:22:32;;;;;;;19.73;7.10;;;;;;;19.29;57.18;98679.41;5093420;28;20051;-44
2023/05/24 05:24:58;;;;;;;19.25;6.85;;;;;;;19.23;57.16;98678.56;5094740;28;20058;-44
2023/05/24 05:27:24;;;;;;;14.63;7.38;;;;;;;19.27;57.42;98686.84;5094745;28;20048;-44
2023/05/24 05:29:50;;;;;;;15.38;6.88;;;;;;;19.30;57.29;98681.03;5093723;28;20054;-44
2023/05/24 05:32:16;;;;;;;25.20;7.75;;;;;;;19.27;57.17;98684.97;5094484;28;20050;-44
2023/05/24 05:34:41;;;;;;;25.40;7.53;;;;;;;19.27;57.21;98682.31;5094622;28;20573;-44
2023/05/24 05:37:07;;;;;;;25.92;8.30;;;;;;;19.26;56.98;98686.06;5093229;28;20023;-44
2023/05/24 05:39:33;;;;;;;25.60;7.95;;;;;;;19.19;57.01;98688.13;5094500;28;20103;-44
2023/05/24 05:41:58;;;;;;;21.02;7.50;;;;;;;19.12;57.29;98690.22;5093438;28;20124;-44
2023/05/24 05:44:24;;;;;;;21.90;8.10;;;;;;;19.10;57.38;98695.78;5093125;28;20051;-44
2023/05/24 05:46:50;;;;;;;25.35;8.23;;;;;;;19.08;57.70;98689.13;5092714;28;20061;-44
2023/05/24 05:49:17;;;;;;;22.35;7.65;;;;;;;19.08;57.50;98689.94;5094275;28;20028;-44
2023/05/24 05:51:44;;;;;;;26.35;8.80;;;;;;;19.00;57.58;98689.63;5094225;28;20028;-44
2023/05/24 05:54:14;;;;;;;22.88;7.40;;;;;;;18.93;58.10;98690.63;5076409;28;20032;-44
2023/05/24 05:56:49;;;;;;;22.90;8.65;;;;;;;18.96;58.05;98681.34;5092809;28;20055;-44
2023/05/24 05:59:15;;;;;;;15.93;7.30;;;;;;;18.96;57.95;98684.78;5092821;28;20021;-44
2023/05/24 06:01:42;;;;;;;23.50;7.75;;;;;;;18.96;57.74;98690.09;5076020;28;20031;-44
2023/05/24 06:04:07;;;;;;;16.33;7.47;;;;;;;18.98;57.85;98684.53;5092713;28;20401;-44
2023/05/24 06:06:33;;;;;;;25.08;7.63;;;;;;;18.95;57.91;98687.69;5092592;28;20028;-43
2023/05/24 06:09:00;;;;;;;15.02;7.93;;;;;;;18.91;57.67;98686.59;5093914;28;20024;-44
2023/05/24 06:11:26;;;;;;;25.13;8.55;;;;;;;18.85;57.89;98691.06;5092501;28;20524;-44
2023/05/24 06:13:52;;;;;;;22.38;7.68;;;;;;;18.79;58.21;98697.41;5092506;28;20070;-44
2023/05/24 06:16:18;;;;;;;18.20;7.15;;;;;;;18.80;58.08;98699.03;5092446;28;20035;-44
2023/05/24 06:18:46;;;;;;;15.60;8.38;;;;;;;18.85;57.91;98700.91;5092475;28;20090;-44
2023/05/24 06:21:12;;;;;;;21.60;7.65;;;;;;;18.87;57.62;98694.28;5093637;28;20474;-44
2023/05/24 06:23:38;;;;;;;24.65;7.97;;;;;;;18.82;57.59;98704.09;5092351;28;20482;-44
2023/05/24 06:26:04;;;;;;;14.50;7.57;;;;;;;18.71;57.81;98705.81;5093622;28;20099;-44
2023/05/24 06:28:30;;;;;;;19.55;8.00;;;;;;;18.68;58.23;98703.69;5092221;28;20036;-44
2023/05/24 06:30:55;;;;;;;17.58;7.93;;;;;;;18.72;58.18;98712.75;5093454;28;20512;-44
2023/05/24 06:33:21;;;;;;;11.30;7.45;;;;;;;18.75;57.99;98712.22;5092457;28;20048;-44
2023/05/24 06:35:47;;;;;;;13.02;9.07;;;;;;;18.69;57.84;98710.59;5092101;28;20051;-44
2023/05/24 06:38:13;;;;;;;8.93;7.88;;;;;;;18.59;57.85;98710.50;5091993;28;20100;-44
2023/05/24 06:40:39;;;;;;;14.05;7.93;;;;;;;18.48;58.17;98709.59;5075140;28;20566;-44
2023/05/24 06:43:05;;;;;;;17.00;7.50;;;;;;;18.44;58.29;98709.31;5075678;28;20087;-43
2023/05/24 06:45:31;;;;;;;19.23;8.40;;;;;;;18.42;58.63;98714.06;5092980;28;20075;-43
2023/05/24 06:47:56;;;;;;;19.55;8.48;;;;;;;18.54;58.56;98719.25;5091917;28;20023;-43
2023/05/24 06:50:22;;;;;;;15.50;8.50;;;;;;;18.50;58.30;98710.97;5093082;28;20103;-43
2023/05/24 06:52:48;;;;;;;23.83;8.93;;;;;;;18.47;58.41;98706.16;5092994;28;20024;-44
2023/05/24 06:55:14;;;;;;;22.17;8.93;;;;;;;18.54;58.22;98713.91;5093080;28;20024;-44
2023/05/24 06:57:40;;;;;;;13.43;8.40;;;;;;;18.68;58.30;98709.00;5091700;28;20523;-44
2023/05/24 07:00:11;;;;;;;30.23;10.55;;;;;;;18.94;57.84;98716.16;5091129;28;20049;-44
2023/05/24 07:02:38;;;;;;;38.63;11.70;;;;;;;19.21;57.31;98709.16;5092913;28;20424;-44
2023/05/24 07:05:05;;;;;;;31.42;10.57;;;;;;;19.35;56.79;98713.78;5108543;28;20085;-43
2023/05/24 07:07:31;;;;;;;29.27;13.23;;;;;;;19.58;56.33;98717.13;5091508;28;20024;-44
2023/05/24 07:09:57;;;;;;;26.52;10.88;;;;;;;19.83;55.69;98713.00;5091474;28;20020;-44
2023/05/24 07:12:23;;;;;;;29.58;10.90;;;;;;;19.99;54.52;98711.97;5091269;28;20055;-43
2023/05/24 07:14:48;;;;;;;33.80;13.43;;;;;;;20.12;54.42;98722.16;5092819;28;20031;-44
2023/05/24 07:17:14;;;;;;;24.20;10.93;;;;;;;20.25;53.83;98717.41;5091356;28;20035;-44
2023/05/24 07:19:40;;;;;;;32.83;13.90;;;;;;;20.32;53.45;98723.25;5091333;28;20028;-44
2023/05/24 07:22:07;;;;;;;25.70;12.20;;;;;;;20.38;53.58;98726.75;5092596;28;20031;-44
2023/05/24 07:24:32;;;;;;;21.58;11.60;;;;;;;20.27;53.53;98729.41;5091244;28;20378;-44
2023/05/24 07:26:58;;;;;;;24.40;11.15;;;;;;;20.08;53.66;98726.41;5091193;28;20031;-44
2023/05/24 07:29:24;;;;;;;28.98;11.38;;;;;;;20.03;54.02;98729.06;5091152;28;20072;-44
2023/05/24 07:31:51;;;;;;;30.23;12.95;;;;;;;20.03;53.99;98729.06;5092227;28;20024;-44
2023/05/24 07:34:19;;;;;;;23.23;10.30;;;;;;;20.14;53.67;98730.69;5092294;28;20480;-44
2023/05/24 07:36:47;;;;;;;34.60;12.02;;;;;;;20.20;53.16;98739.47;5092248;28;20485;-44
2023/05/24 07:39:14;;;;;;;38.78;14.10;;;;;;;20.05;53.65;98740.25;5090943;28;20100;-44
2023/05/24 07:41:41;;;;;;;47.25;18.73;;;;;;;19.86;53.71;98739.91;5090954;28;20128;-44
2023/05/24 07:44:06;;;;;;;71.28;29.85;;;;;;;19.73;54.00;98741.16;5092190;28;20506;-44
2023/05/24 07:46:32;;;;;;;78.25;28.48;;;;;;;19.65;54.22;98746.94;5092006;28;20078;-44
2023/05/24 07:48:58;;;;;;;114.88;40.78;;;;;;;19.65;54.54;98740.84;5092158;28;20028;-43
2023/05/24 07:51:25;;;;;;;144.95;52.72;;;;;;;19.60;54.30;98741.63;5090840;28;20089;-43
2023/05/24 07:53:51;;;;;;;92.38;34.08;;;;;;;19.59;54.95;98744.53;5091989;28;20028;-44
2023/05/24 07:56:17;;;;;;;88.75;26.73;;;;;;;19.61;54.77;98737.09;5092050;28;20028;-44
2023/05/24 07:58:45;;;;;;;74.18;28.98;;;;;;;19.47;54.86;98748.19;5092022;28;20099;-44
2023/05/24 08:01:12;;;;;;;116.80;43.38;;;;;;;19.47;55.33;98742.84;5090657;28;20020;-44
2023/05/24 08:03:38;;;;;;;110.60;41.28;;;;;;;19.65;54.86;98744.28;5090633;28;20072;-44
2023/05/24 08:06:04;;;;;;;111.88;44.70;;;;;;;19.68;54.72;98756.28;5090558;28;20024;-44
2023/05/24 08:08:30;;;;;;;181.48;57.30;;;;;;;19.66;54.74;98750.41;5090591;28;20122;-44
2023/05/24 08:10:56;;;;;;;98.57;39.13;;;;;;;19.68;54.49;98753.63;5090841;28;21971;-43
2023/05/24 08:13:22;;;;;;;123.38;48.38;;;;;;;19.49;54.79;98755.91;5090519;28;20449;-43
2023/05/24 08:15:47;;;;;;;64.82;26.77;;;;;;;19.41;55.18;98759.84;5090787;28;20088;-44
2023/05/24 08:18:13;;;;;;;142.98;53.13;;;;;;;19.37;55.39;98764.09;5091721;28;20508;-44
2023/05/24 08:20:39;;;;;;;71.30;27.98;;;;;;;19.42;55.52;98763.31;5090550;28;20036;-44
2023/05/24 08:23:05;;;;;;;108.13;45.20;;;;;;;19.51;55.58;98764.44;5090727;28;20485;-43
2023/05/24 08:25:31;;;;;;;107.82;42.00;;;;;;;19.68;55.29;98756.28;5090368;28;20073;-44
2023/05/24 08:27:57;;;;;;;77.20;29.23;;;;;;;19.84;54.74;98765.19;5091753;28;20103;-44
2023/05/24 08:30:23;;;;;;;121.60;42.83;;;;;;;19.80;54.56;98761.44;5090337;28;20166;-44
2023/05/24 08:32:51;;;;;;;58.40;24.75;;;;;;;19.72;54.57;98760.09;5091564;28;20539;-44
2023/05/24 08:35:16;;;;;;;47.20;20.17;;;;;;;19.58;54.55;98770.34;5091584;28;20402;-44
2023/05/24 08:37:42;;;;;;;41.88;18.63;;;;;;;19.43;55.04;98763.06;5090349;28;20032;-43
2023/05/24 08:40:11;;;;;;;84.68;38.17;;;;;;;19.49;55.14;98759.38;5090308;28;20035;-43
2023/05/24 08:42:38;;;;;;;122.25;55.53;;;;;;;19.61;54.91;98764.50;5091581;28;20173;-44
2023/05/24 08:45:09;;;;;;;72.53;31.45;;;;;;;19.68;54.95;98765.09;5090276;28;20032;-49
2023/05/24 08:47:36;;;;;;;71.55;33.17;;;;;;;19.86;54.48;98765.72;5090078;28;20039;-44
2023/05/24 08:50:04;;;;;;;64.68;26.70;;;;;;;20.08;54.20;98768.22;5091439;28;20028;-44
2023/05/24 08:52:31;;;;;;;73.90;29.95;;;;;;;20.16;53.46;98765.06;5090036;28;20042;-44
2023/05/24 08:54:58;;;;;;;72.53;29.42;;;;;;;20.13;53.05;98766.38;5091525;28;20047;-44
2023/05/24 08:57:27;;;;;;;41.38;20.63;;;;;;;20.08;53.37;98773.56;5091513;28;20028;-44
2023/05/24 08:59:56;;;;;;;29.95;14.38;;;;;;;20.08;53.49;98771.72;5090154;28;20038;-46
2023/05/24 09:02:22;;;;;;;25.73;13.05;;;;;;;20.06;53.49;98768.50;5090033;28;20036;-44
2023/05/24 09:04:51;;;;;;;21.63;10.30;;;;;;;20.09;53.45;98773.28;5091418;28;20468;-44
2023/05/24 09:07:18;;;;;;;24.60;10.52;;;;;;;20.18;53.40;98770.91;5091357;28;20035;-44
2023/05/24 09:09:56;;;;;;;18.45;9.15;;;;;;;20.19;53.31;98772.53;5073670;28;20374;-44
2023/05/24 09:12:23;;;;;;;19.02;10.90;;;;;;;20.19;53.24;98777.88;5089920;28;20024;-44
2023/05/24 09:14:49;;;;;;;32.13;11.63;;;;;;;20.25;53.09;98773.38;5091320;28;20028;-44
2023/05/24 09:17:15;;;;;;;21.65;10.82;;;;;;;20.31;52.70;98770.44;5089935;28;20085;-44
2023/05/24 09:19:49;;;;;;;22.75;11.07;;;;;;;20.37;52.62;98773.94;5091544;28;20028;-44
2023/05/24 09:22:19;;;;;;;20.42;9.63;;;;;;;20.58;52.26;98781.97;5092488;28;20031;-44
2023/05/24 09:24:49;;;;;;;21.27;10.02;;;;;;;20.82;51.79;98779.66;5094818;28;20454;-44
2023/05/24 09:27:20;;;;;;;17.67;9.88;;;;;;;21.02;51.32;98781.53;5094709;28;20050;-44
2023/05/24 09:29:47;;;;;;;12.15;9.40;;;;;;;21.33;50.67;98774.34;5094993;28;20031;-44
2023/05/24 09:32:14;;;;;;;21.92;10.27;;;;;;;21.60;50.47;98773.25;5094630;28;20028;-44
2023/05/24 09:34:42;;;;;;;18.88;9.05;;;;;;;22.24;49.29;98764.50;5094678;28;20035;-44
2023/05/24 09:37:21;;;;;;;14.88;8.20;;;;;;;23.05;47.27;98766.97;5094585;28;20036;-44
2023/05/24 09:39:47;;;;;;;22.60;9.30;;;;;;;23.55;45.78;98766.78;5095442;28;20024;-44
2023/05/24 09:42:20;;;;;;;41.22;20.80;;;;;;;23.77;45.05;98771.66;5094527;28;20020;-44
2023/05/24 09:45:09;;;;;;;45.28;20.60;;;;;;;24.12;44.38;98768.56;5094357;28;20028;-44
2023/05/24 09:47:40;;;;;;;62.20;28.23;;;;;;;24.30;43.52;98764.31;5086396;28;20052;-44
2023/05/24 09:50:16;;;;;;;52.47;22.40;;;;;;;24.37;43.13;98774.69;5094213;28;20048;-44
2023/05/24 09:52:42;;;;;;;138.27;59.90;;;;;;;24.37;43.42;98772.00;5109860;28;20081;-44
2023/05/24 09:55:13;;;;;;;113.53;48.13;;;;;;;24.44;42.93;98769.75;5076314;28;20036;-44
2023/05/24 09:57:38;;;;;;;87.38;37.42;;;;;;;24.38;43.11;98768.22;5092867;28;20409;-44
2023/05/24 10:00:13;;;;;;;119.55;47.08;;;;;;;24.40;43.16;98770.63;5092811;28;20036;-44
2023/05/24 10:02:39;;;;;;;148.90;62.80;;;;;;;24.42;43.14;98773.81;5094113;28;20020;-44
2023/05/24 10:05:06;;;;;;;74.80;32.08;;;;;;;24.26;43.07;98773.22;5092636;28;20035;-44
2023/05/24 10:07:34;;;;;;;75.65;36.80;;;;;;;24.02;43.76;98770.56;5075991;28;20093;-44
2023/05/24 10:10:01;;;;;;;64.28;31.90;;;;;;;23.78;44.12;98776.72;5093979;28;20028;-44
2023/05/24 10:12:27;;;;;;;92.85;39.78;;;;;;;23.65;44.44;98769.34;5093876;28;20497;-44
2023/05/24 10:14:56;;;;;;;92.55;45.63;;;;;;;23.56;45.11;98768.38;5093874;28;20085;-44
2023/05/24 10:17:23;;;;;;;71.78;33.35;;;;;;;23.47;44.87;98765.53;5093775;28;20036;-44
2023/05/24 10:19:50;;;;;;;94.28;44.55;;;;;;;23.49;45.01;98769.50;5092477;28;20035;-44
2023/05/24 10:22:16;;;;;;;105.30;51.17;;;;;;;23.62;44.45;98762.66;5093721;28;20031;-44
2023/05/24 10:24:46;;;;;;;129.35;58.58;;;;;;;23.73;44.08;98768.72;5092320;28;20383;-44
2023/05/24 10:27:18;;;;;;;148.38;65.80;;;;;;;23.83;43.43;98762.50;5093625;28;20059;-44
2023/05/24 10:30:12;;;;;;;162.35;75.20;;;;;;;24.18;43.44;98758.56;5092276;28;20085;-44
2023/05/24 10:32:39;;;;;;;76.70;33.57;;;;;;;24.77;42.25;98761.00;5091738;28;20043;-44
2023/05/24 10:35:07;;;;;;;160.70;71.20;;;;;;;25.38;41.06;98754.66;5074643;28;20102;-44
2023/05/24 10:37:33;;;;;;;95.20;44.38;;;;;;;26.36;39.26;98747.34;5092051;28;20023;-45
2023/05/24 10:39:59;;;;;;;81.78;37.80;;;;;;;27.35;37.62;98740.19;5093391;28;20389;-45
2023/05/24 10:42:25;;;;;;;48.90;18.90;;;;;;;27.72;36.20;98740.00;5091968;28;20028;-45
2023/05/24 10:44:51;;;;;;;35.58;14.73;;;;;;;28.01;36.26;98744.88;5091933;28;20031;-45
2023/05/24 10:47:20;;;;;;;26.58;8.30;;;;;;;28.79;34.98;98738.75;5093004;28;20516;-45
2023/05/24 10:49:58;;;;;;;36.35;11.75;;;;;;;29.55;33.40;98740.00;5093179;28;20502;-45
2023/05/24 10:52:50;;;;;;;17.02;9.05;;;;;;;29.57;33.48;98743.19;5092991;28;20035;-44
2023/05/24 10:55:18;;;;;;;18.08;8.90;;;;;;;29.97;32.58;98724.69;5088002;28;20032;-45
2023/05/24 10:57:44;;;;;;;21.55;8.75;;;;;;;29.94;32.21;98729.97;5093075;28;20494;-45
2023/05/24 11:00:19;;;;;;;13.93;8.30;;;;;;;29.76;32.54;98734.69;5091619;28;20031;-45
2023/05/24 11:02:48;;;;;;;20.52;8.73;;;;;;;29.40;32.70;98730.50;5092982;28;20438;-44
2023/05/24 11:05:15;;;;;;;18.40;9.45;;;;;;;29.25;32.81;98731.84;5091491;28;20030;-45
2023/05/24 11:07:41;;;;;;;19.42;8.48;;;;;;;28.86;33.78;98730.97;5092796;28;20027;-45
2023/05/24 11:10:18;;;;;;;22.92;8.90;;;;;;;29.05;33.37;98727.91;5092716;28;20020;-45
2023/05/24 11:12:44;;;;;;;17.98;8.55;;;;;;;28.88;33.54;98728.75;5092639;28;20024;-45
2023/05/24 11:15:10;;;;;;;15.20;8.60;;;;;;;28.74;33.60;98720.81;5091370;28;20414;-45
2023/05/24 11:18:08;;;;;;;10.73;8.43;;;;;;;28.64;33.88;98730.03;5092688;28;20020;-45
2023/05/24 11:20:34;;;;;;;13.60;8.18;;;;;;;28.38;33.82;98721.91;5083679;28;20070;-45
2023/05/24 11:23:10;;;;;;;13.75;8.18;;;;;;;28.04;34.76;98720.75;5091168;28;20016;-45
2023/05/24 11:25:37;;;;;;;14.88;8.52;;;;;;;28.12;34.55;98723.78;5091252;28;20031;-44